createdAt,value
2018-12-06T00:02:15.663Z,4.70
2018-12-06T00:04:49.344Z,4.70
2018-12-06T00:07:22.827Z,4.70
2018-12-06T00:09:57.196Z,4.70
2018-12-06T00:12:29.693Z,4.70
2018-12-06T00:15:14.437Z,4.60
2018-12-06T00:17:47.450Z,4.80
2018-12-06T00:20:19.946Z,4.80
2018-12-06T00:22:52.595Z,4.90
2018-12-06T00:25:27.231Z,4.90
2018-12-06T00:28:00.766Z,4.80
2018-12-06T00:30:38.946Z,4.80
2018-12-06T00:33:12.125Z,4.70
2018-12-06T00:35:45.713Z,4.90
2018-12-06T00:38:19.677Z,4.90
2018-12-06T00:40:52.863Z,4.80
2018-12-06T00:43:25.595Z,4.50
2018-12-06T00:45:58.924Z,4.70
2018-12-06T00:48:31.805Z,4.70
2018-12-06T00:51:04.830Z,4.70
2018-12-06T00:53:37.901Z,4.80
2018-12-06T00:56:10.529Z,4.70
2018-12-06T00:58:44.108Z,4.80
2018-12-06T01:01:17.067Z,4.90
2018-12-06T01:03:50.032Z,4.90
2018-12-06T01:06:24.243Z,4.90
2018-12-06T01:08:57.584Z,4.90
2018-12-06T01:11:30.133Z,4.90
2018-12-06T01:14:04.232Z,5.00
2018-12-06T01:16:37.203Z,5.10
2018-12-06T01:19:11.786Z,4.80
2018-12-06T01:21:46.288Z,4.90
2018-12-06T01:24:19.207Z,4.80
2018-12-06T01:26:52.823Z,4.90
2018-12-06T01:29:25.812Z,5.00
2018-12-06T01:32:00.534Z,5.20
2018-12-06T01:34:34.162Z,5.20
2018-12-06T01:37:08.742Z,4.90
2018-12-06T01:39:43.401Z,5.10
2018-12-06T01:42:16.890Z,5.00
2018-12-06T01:44:50.393Z,4.90
2018-12-06T01:47:24.907Z,4.90
2018-12-06T01:49:57.555Z,5.20
2018-12-06T01:52:31.053Z,5.10
2018-12-06T01:55:04.332Z,4.90
2018-12-06T01:57:38.326Z,5.10
2018-12-06T02:00:12.296Z,5.10
2018-12-06T02:02:45.768Z,4.80
2018-12-06T02:05:20.482Z,4.90
2018-12-06T02:07:54.703Z,4.90
2018-12-06T02:10:28.040Z,4.80
2018-12-06T02:13:00.649Z,5.00
2018-12-06T02:15:33.335Z,4.90
2018-12-06T02:18:06.797Z,5.10
2018-12-06T02:20:40.269Z,4.90
2018-12-06T02:23:14.280Z,4.90
2018-12-06T02:25:47.348Z,5.00
2018-12-06T02:28:20.079Z,5.00
2018-12-06T02:30:54.846Z,5.00
2018-12-06T02:33:27.909Z,5.00
2018-12-06T02:36:01.124Z,4.90
2018-12-06T02:38:33.858Z,5.00
2018-12-06T02:41:06.559Z,5.00
2018-12-06T02:43:41.301Z,5.00
2018-12-06T02:46:14.804Z,5.20
2018-12-06T02:48:47.966Z,5.10
2018-12-06T02:51:21.178Z,5.10
2018-12-06T02:53:55.315Z,5.10
2018-12-06T02:56:28.677Z,5.20
2018-12-06T02:59:01.700Z,5.20
2018-12-06T03:01:35.067Z,5.10
2018-12-06T03:04:08.312Z,5.10
2018-12-06T03:06:41.845Z,5.20
2018-12-06T03:09:16.436Z,5.30
2018-12-06T03:11:49.565Z,5.20
2018-12-06T03:14:22.299Z,5.20
2018-12-06T03:16:55.932Z,5.30
2018-12-06T03:19:29.652Z,5.30
2018-12-06T03:22:02.632Z,5.10
2018-12-06T03:24:36.569Z,5.10
2018-12-06T03:27:09.361Z,5.10
2018-12-06T03:29:42.732Z,5.10
2018-12-06T03:32:16.086Z,5.30
2018-12-06T03:34:49.116Z,5.30
2018-12-06T03:37:21.592Z,5.40
2018-12-06T03:39:55.610Z,5.40
2018-12-06T03:42:28.481Z,5.40
2018-12-06T03:45:02.096Z,5.40
2018-12-06T03:47:35.028Z,5.50
2018-12-06T03:50:08.280Z,5.70
2018-12-06T03:52:40.939Z,5.50
2018-12-06T03:55:13.998Z,5.40
2018-12-06T03:57:47.483Z,5.40
2018-12-06T04:00:20.570Z,5.20
2018-12-06T04:02:53.692Z,5.40
2018-12-06T04:05:26.780Z,5.50
2018-12-06T04:07:59.506Z,5.50
2018-12-06T04:10:32.841Z,5.70
2018-12-06T04:13:07.465Z,5.60
2018-12-06T04:15:40.530Z,5.60
2018-12-06T04:18:13.000Z,5.70
2018-12-06T04:20:45.719Z,5.70
2018-12-06T04:23:18.598Z,5.60
2018-12-06T04:25:51.567Z,5.60
2018-12-06T04:28:24.341Z,5.50
2018-12-06T04:30:58.342Z,5.50
2018-12-06T04:33:32.636Z,5.40
2018-12-06T04:36:05.610Z,5.50
2018-12-06T04:38:38.669Z,5.40
2018-12-06T04:41:11.899Z,5.50
2018-12-06T04:43:45.046Z,5.70
2018-12-06T04:46:18.236Z,5.90
2018-12-06T04:48:51.434Z,5.90
2018-12-06T04:51:24.796Z,5.60
2018-12-06T04:53:57.446Z,5.60
2018-12-06T04:56:32.196Z,5.70
2018-12-06T04:59:05.518Z,5.60
2018-12-06T05:01:38.682Z,5.70
2018-12-06T05:04:13.542Z,5.60
2018-12-06T05:06:46.779Z,5.70
2018-12-06T05:09:19.476Z,5.80
2018-12-06T05:11:52.795Z,5.80
2018-12-06T05:14:25.807Z,5.90
2018-12-06T05:16:58.328Z,5.90
2018-12-06T05:19:31.459Z,6.10
2018-12-06T05:22:04.039Z,6.00
2018-12-06T05:24:36.789Z,6.00
2018-12-06T05:27:09.814Z,6.00
2018-12-06T05:29:44.636Z,6.00
2018-12-06T05:32:17.586Z,6.10
2018-12-06T05:34:50.166Z,6.20
2018-12-06T05:37:23.408Z,6.10
2018-12-06T05:39:56.339Z,6.20
2018-12-06T05:42:28.940Z,6.20
2018-12-06T05:45:02.105Z,6.30
2018-12-06T05:47:36.390Z,6.00
2018-12-06T05:50:09.807Z,6.20
2018-12-06T05:52:42.700Z,6.20
2018-12-06T05:55:16.477Z,6.30
2018-12-06T05:57:49.061Z,6.20
2018-12-06T06:00:21.711Z,6.10
2018-12-06T06:02:56.433Z,6.20
2018-12-06T06:05:31.114Z,6.30
2018-12-06T06:08:05.673Z,6.20
2018-12-06T06:10:38.362Z,6.40
2018-12-06T06:13:11.859Z,6.30
2018-12-06T06:15:44.578Z,6.20
2018-12-06T06:18:18.102Z,6.30
2018-12-06T06:20:51.206Z,6.10
2018-12-06T06:23:24.263Z,6.30
2018-12-06T06:25:57.463Z,6.30
2018-12-06T06:28:31.371Z,6.30
2018-12-06T06:31:04.497Z,6.40
2018-12-06T06:33:37.936Z,6.50
2018-12-06T06:36:10.980Z,6.30
2018-12-06T06:38:43.972Z,6.40
2018-12-06T06:41:17.079Z,6.50
2018-12-06T06:43:49.629Z,6.40
2018-12-06T06:46:22.184Z,6.20
2018-12-06T06:48:54.791Z,6.20
2018-12-06T06:51:27.921Z,6.30
2018-12-06T06:54:00.527Z,6.40
2018-12-06T06:56:35.046Z,6.40
2018-12-06T06:59:07.941Z,6.30
2018-12-06T07:01:40.900Z,6.40
2018-12-06T07:04:13.660Z,6.40
2018-12-06T07:06:46.549Z,6.50
2018-12-06T07:09:20.649Z,6.50
2018-12-06T07:11:53.534Z,6.50
2018-12-06T07:14:26.727Z,6.50
2018-12-06T07:16:59.772Z,6.60
2018-12-06T07:19:32.740Z,6.40
2018-12-06T07:22:05.743Z,6.20
2018-12-06T07:24:38.477Z,6.20
2018-12-06T07:27:11.011Z,6.20
2018-12-06T07:29:44.752Z,6.40
2018-12-06T07:32:17.770Z,6.30
2018-12-06T07:34:52.302Z,6.50
2018-12-06T07:37:25.635Z,6.40
2018-12-06T07:39:59.479Z,6.40
2018-12-06T07:42:32.136Z,6.40
2018-12-06T07:45:06.240Z,6.30
2018-12-06T07:47:39.116Z,6.20
2018-12-06T07:50:11.556Z,6.50
2018-12-06T07:52:45.693Z,6.30
2018-12-06T07:55:18.375Z,6.30
2018-12-06T07:57:51.476Z,6.40
2018-12-06T08:00:24.276Z,6.30
2018-12-06T08:02:56.970Z,6.40
2018-12-06T08:05:30.766Z,6.20
2018-12-06T08:08:03.912Z,6.30
2018-12-06T08:10:37.503Z,6.30
2018-12-06T08:13:10.164Z,6.30
2018-12-06T08:15:43.571Z,6.20
2018-12-06T08:18:17.147Z,6.10
2018-12-06T08:20:50.022Z,6.40
2018-12-06T08:23:22.764Z,6.40
2018-12-06T08:25:55.728Z,6.40
2018-12-06T08:28:29.768Z,6.60
2018-12-06T08:31:02.565Z,6.50
2018-12-06T08:33:35.230Z,6.40
2018-12-06T08:36:07.920Z,6.50
2018-12-06T08:38:41.125Z,6.50
2018-12-06T08:41:13.702Z,6.40
2018-12-06T08:43:46.411Z,6.50
2018-12-06T08:46:19.704Z,6.40
2018-12-06T08:48:52.306Z,6.50
2018-12-06T08:51:25.049Z,6.80
2018-12-06T08:53:57.649Z,6.80
2018-12-06T08:56:30.902Z,6.80
2018-12-06T08:59:03.794Z,6.70
2018-12-06T09:01:36.747Z,6.70
2018-12-06T09:04:09.636Z,7.00
2018-12-06T09:06:44.228Z,6.80
2018-12-06T09:09:17.523Z,6.80
2018-12-06T09:11:50.197Z,6.90
2018-12-06T09:14:23.238Z,7.00
2018-12-06T09:16:56.923Z,7.00
2018-12-06T09:19:29.953Z,7.00
2018-12-06T09:22:03.258Z,7.10
2018-12-06T09:24:36.088Z,7.10
2018-12-06T09:27:09.181Z,7.00
2018-12-06T09:29:42.847Z,6.90
2018-12-06T09:32:16.891Z,7.00
2018-12-06T09:34:50.955Z,6.90
2018-12-06T09:37:23.925Z,7.10
2018-12-06T09:40:00.517Z,7.00
2018-12-06T09:42:34.700Z,7.30
2018-12-06T09:45:08.640Z,7.00
2018-12-06T09:47:41.544Z,7.10
2018-12-06T09:50:14.157Z,7.00
2018-12-06T09:52:46.778Z,7.10
2018-12-06T09:55:20.057Z,7.10
2018-12-06T09:57:52.994Z,7.10
2018-12-06T10:00:26.031Z,7.20
2018-12-06T10:03:00.384Z,7.20
2018-12-06T10:05:32.943Z,7.20
2018-12-06T10:08:06.459Z,7.10
2018-12-06T10:10:39.693Z,7.30
2018-12-06T10:13:12.315Z,7.30
2018-12-06T10:15:45.948Z,7.40
2018-12-06T10:18:18.673Z,7.50
2018-12-06T10:20:51.599Z,7.60
2018-12-06T10:23:24.196Z,7.30
2018-12-06T10:25:57.307Z,7.20
2018-12-06T10:28:30.699Z,7.40
2018-12-06T10:31:03.627Z,7.50
2018-12-06T10:33:36.434Z,7.50
2018-12-06T10:36:12.178Z,7.60
2018-12-06T10:38:45.562Z,7.90
2018-12-06T10:41:18.376Z,8.50
2018-12-06T10:43:51.229Z,8.40
2018-12-06T10:46:25.593Z,7.90
2018-12-06T10:48:58.524Z,7.70
2018-12-06T10:51:41.540Z,7.70
2018-12-06T10:54:15.004Z,7.50
2018-12-06T10:56:48.368Z,7.60
2018-12-06T10:59:22.576Z,7.60
2018-12-06T11:02:01.593Z,7.70
2018-12-06T11:04:35.122Z,7.50
2018-12-06T11:07:08.294Z,7.70
2018-12-06T11:09:41.427Z,7.80
2018-12-06T11:12:14.974Z,7.90
2018-12-06T11:14:48.341Z,8.10
2018-12-06T11:17:21.388Z,7.70
2018-12-06T11:19:54.720Z,7.70
2018-12-06T11:22:27.888Z,7.90
2018-12-06T11:25:00.999Z,8.00
2018-12-06T11:27:33.676Z,8.20
2018-12-06T11:30:07.070Z,8.20
2018-12-06T11:32:40.046Z,8.20
2018-12-06T11:38:24.382Z,8.20
2018-12-06T11:40:57.955Z,8.00
2018-12-06T11:43:32.564Z,8.00
2018-12-06T11:46:05.919Z,8.00
2018-12-06T11:48:38.845Z,7.80
2018-12-06T11:51:12.662Z,7.90
2018-12-06T11:53:46.689Z,8.00
2018-12-06T11:56:21.348Z,7.80
2018-12-06T11:58:55.521Z,8.10
2018-12-06T12:01:28.186Z,8.00
2018-12-06T12:04:00.938Z,8.00
2018-12-06T12:06:34.102Z,8.30
2018-12-06T12:09:08.400Z,8.20
2018-12-06T12:11:41.411Z,8.20
2018-12-06T12:14:14.234Z,8.10
2018-12-06T12:16:46.838Z,8.20
2018-12-06T12:19:20.348Z,8.20
2018-12-06T12:21:53.465Z,8.30
2018-12-06T12:24:26.556Z,8.30
2018-12-06T12:26:59.638Z,8.20
2018-12-06T12:29:32.770Z,8.40
2018-12-06T12:32:06.176Z,8.20
2018-12-06T12:34:39.436Z,8.30
2018-12-06T12:37:12.481Z,8.30
2018-12-06T12:39:45.373Z,8.30
2018-12-06T12:42:18.537Z,8.40
2018-12-06T12:44:52.157Z,8.60
2018-12-06T12:47:26.597Z,8.60
2018-12-06T12:49:59.280Z,8.50
2018-12-06T12:52:32.839Z,8.40
2018-12-06T12:55:07.800Z,8.40
2018-12-06T12:57:40.958Z,8.60
2018-12-06T13:00:15.270Z,8.40
2018-12-06T13:02:48.352Z,8.50
2018-12-06T13:05:22.520Z,8.20
2018-12-06T13:07:57.018Z,8.10
2018-12-06T13:10:30.897Z,8.10
2018-12-06T13:13:05.519Z,8.20
2018-12-06T13:15:38.121Z,8.20
2018-12-06T13:18:11.096Z,8.30
2018-12-06T13:20:45.129Z,8.30
2018-12-06T13:23:18.897Z,8.40
2018-12-06T13:25:51.946Z,8.50
2018-12-06T13:28:26.628Z,8.40
2018-12-06T13:31:01.348Z,8.60
2018-12-06T13:33:37.226Z,8.70
2018-12-06T13:36:10.285Z,8.70
2018-12-06T13:38:44.134Z,8.60
2018-12-06T13:41:17.738Z,8.30
2018-12-06T13:43:51.029Z,8.20
2018-12-06T13:46:24.926Z,8.20
2018-12-06T13:48:59.081Z,8.30
2018-12-06T13:51:32.422Z,8.20
2018-12-06T13:54:07.211Z,8.40
2018-12-06T13:56:40.074Z,8.30
2018-12-06T13:59:14.873Z,8.20
2018-12-06T14:01:48.088Z,8.40
2018-12-06T14:04:21.126Z,8.50
2018-12-06T14:06:54.478Z,8.60
2018-12-06T14:09:27.900Z,8.50
2018-12-06T14:12:00.919Z,8.60
2018-12-06T14:14:35.129Z,8.50
2018-12-06T14:17:09.327Z,8.30
2018-12-06T14:19:42.387Z,8.30
2018-12-06T14:22:15.621Z,8.40
2018-12-06T14:24:48.424Z,8.30
2018-12-06T14:27:21.431Z,8.20
2018-12-06T14:29:54.040Z,8.30
2018-12-06T14:32:27.756Z,8.40
2018-12-06T14:35:01.145Z,8.40
2018-12-06T14:37:33.700Z,8.20
2018-12-06T14:40:06.496Z,8.20
2018-12-06T14:42:41.070Z,8.10
2018-12-06T14:45:13.808Z,7.90
2018-12-06T14:47:48.379Z,7.70
2018-12-06T14:50:21.717Z,7.90
2018-12-06T14:52:55.627Z,7.90
2018-12-06T14:55:28.795Z,7.90
2018-12-06T14:58:01.616Z,8.20
2018-12-06T15:00:34.958Z,8.00
2018-12-06T15:03:08.370Z,8.00
2018-12-06T15:05:41.226Z,8.10
2018-12-06T15:08:15.077Z,8.10
2018-12-06T15:10:47.760Z,8.10
2018-12-06T15:13:21.392Z,8.10
2018-12-06T15:15:54.115Z,8.10
2018-12-06T15:18:27.027Z,8.10
2018-12-06T15:21:00.381Z,8.20
2018-12-06T15:23:33.047Z,8.10
2018-12-06T15:26:06.171Z,8.20
2018-12-06T15:28:39.800Z,8.20
2018-12-06T15:31:14.374Z,8.10
2018-12-06T15:33:47.778Z,8.10
2018-12-06T15:36:20.959Z,8.10
2018-12-06T15:38:54.097Z,8.30
2018-12-06T15:41:27.972Z,8.40
2018-12-06T15:44:01.857Z,8.10
2018-12-06T15:46:34.452Z,8.00
2018-12-06T15:49:08.577Z,7.90
2018-12-06T15:51:42.671Z,7.80
2018-12-06T15:54:16.781Z,7.90
2018-12-06T15:56:50.492Z,7.90
2018-12-06T15:59:23.642Z,7.90
2018-12-06T16:01:57.076Z,7.70
2018-12-06T16:04:30.421Z,7.60
2018-12-06T16:07:05.406Z,7.70
2018-12-06T16:09:39.522Z,7.60
2018-12-06T16:12:13.004Z,7.60
2018-12-06T16:14:46.180Z,7.60
2018-12-06T16:17:20.742Z,7.60
2018-12-06T16:19:53.908Z,7.70
2018-12-06T16:22:28.161Z,7.80
2018-12-06T16:25:02.008Z,8.00
2018-12-06T16:27:36.965Z,7.90
2018-12-06T16:30:10.091Z,7.80
2018-12-06T16:32:43.458Z,8.10
2018-12-06T16:35:17.115Z,8.40
2018-12-06T16:37:51.239Z,8.50
2018-12-06T16:40:24.778Z,8.60
2018-12-06T16:42:58.172Z,8.10
2018-12-06T16:45:31.144Z,7.90
2018-12-06T16:48:03.861Z,7.90
2018-12-06T16:50:37.125Z,8.10
2018-12-06T16:53:10.714Z,8.10
2018-12-06T16:55:44.145Z,8.20
2018-12-06T16:58:17.561Z,8.10
2018-12-06T17:00:52.103Z,8.20
2018-12-06T17:03:25.551Z,8.10
2018-12-06T17:05:58.375Z,8.30
2018-12-06T17:08:31.564Z,8.20
2018-12-06T17:11:05.058Z,8.40
2018-12-06T17:13:37.934Z,8.40
2018-12-06T17:16:10.951Z,8.40
2018-12-06T17:18:44.366Z,8.40
2018-12-06T17:21:17.569Z,8.30
2018-12-06T17:23:50.371Z,8.30
2018-12-06T17:26:23.220Z,8.20
2018-12-06T17:28:56.781Z,8.20
2018-12-06T17:31:30.258Z,8.30
2018-12-06T17:34:03.063Z,8.40
2018-12-06T17:36:37.715Z,8.50
2018-12-06T17:39:11.216Z,8.40
2018-12-06T17:41:44.791Z,8.20
2018-12-06T17:44:17.360Z,8.30
2018-12-06T17:46:51.120Z,8.20
2018-12-06T17:49:25.697Z,8.30
2018-12-06T17:51:59.264Z,8.20
2018-12-06T17:54:32.482Z,8.30
2018-12-06T17:57:13.778Z,8.50
2018-12-06T17:59:47.354Z,8.90
2018-12-06T18:02:20.822Z,8.90
2018-12-06T18:04:53.917Z,8.90
2018-12-06T18:07:27.568Z,8.70
2018-12-06T18:10:00.614Z,8.80
2018-12-06T18:12:33.544Z,8.70
2018-12-06T18:15:08.884Z,8.80
2018-12-06T18:17:43.412Z,8.70
2018-12-06T18:20:16.724Z,8.60
2018-12-06T18:22:50.310Z,8.60
2018-12-06T18:25:23.771Z,8.60
2018-12-06T18:27:56.767Z,8.60
2018-12-06T18:30:31.614Z,8.50
2018-12-06T18:33:04.782Z,8.60
2018-12-06T18:35:39.447Z,8.60
2018-12-06T18:38:14.379Z,8.70
2018-12-06T18:43:22.409Z,8.80
2018-12-06T18:45:55.652Z,8.80
2018-12-06T18:48:28.665Z,8.90
2018-12-06T18:51:01.422Z,8.80
2018-12-06T18:53:34.763Z,8.80
2018-12-06T18:56:07.527Z,8.90
2018-12-06T18:58:40.315Z,9.00
2018-12-06T19:01:13.001Z,9.10
2018-12-06T19:03:47.748Z,9.00
2018-12-06T19:06:20.711Z,9.00
2018-12-06T19:08:53.885Z,9.10
2018-12-06T19:11:27.139Z,9.40
2018-12-06T19:14:00.171Z,9.50
2018-12-06T19:16:33.464Z,9.50
2018-12-06T19:19:06.931Z,9.30
2018-12-06T19:21:40.404Z,9.10
2018-12-06T19:24:14.927Z,9.10
2018-12-06T19:26:47.962Z,9.20
2018-12-06T19:29:20.947Z,9.30
2018-12-06T19:31:54.037Z,9.30
2018-12-06T19:34:27.175Z,9.20
2018-12-06T19:37:01.090Z,9.10
2018-12-06T19:39:34.155Z,9.20
2018-12-06T19:42:07.493Z,9.20
2018-12-06T19:44:40.557Z,9.10
2018-12-06T19:47:13.768Z,9.20
2018-12-06T19:49:46.833Z,9.30
2018-12-06T19:52:20.291Z,9.30
2018-12-06T19:54:53.227Z,9.40
2018-12-06T19:57:26.017Z,9.50
2018-12-06T19:59:59.978Z,9.60
2018-12-06T20:02:33.095Z,9.60
2018-12-06T20:05:06.904Z,9.70
2018-12-06T20:07:40.817Z,9.60
2018-12-06T20:10:14.410Z,9.60
2018-12-06T20:12:47.007Z,9.50
2018-12-06T20:15:19.745Z,9.40
2018-12-06T20:17:52.341Z,9.50
2018-12-06T20:20:25.556Z,9.40
2018-12-06T20:22:58.192Z,9.80
2018-12-06T20:25:31.060Z,9.80
2018-12-06T20:28:05.555Z,9.90
2018-12-06T20:30:39.203Z,9.70
2018-12-06T20:33:12.765Z,9.70
2018-12-06T20:35:45.593Z,9.60
2018-12-06T20:38:18.450Z,9.60
2018-12-06T20:40:51.429Z,9.60
2018-12-06T20:43:24.324Z,9.50
2018-12-06T20:45:57.656Z,9.50
2018-12-06T20:48:31.083Z,9.50
2018-12-06T20:51:04.483Z,9.40
2018-12-06T20:53:37.325Z,9.50
2018-12-06T20:56:10.081Z,9.40
2018-12-06T20:58:43.111Z,9.40
2018-12-06T21:01:16.089Z,9.40
2018-12-06T21:03:51.091Z,9.50
2018-12-06T21:06:24.037Z,9.50
2018-12-06T21:08:58.031Z,9.60
2018-12-06T21:11:30.953Z,9.70
2018-12-06T21:14:04.688Z,9.60
2018-12-06T21:16:37.799Z,9.60
2018-12-06T21:19:11.131Z,9.60
2018-12-06T21:21:44.627Z,9.70
2018-12-06T21:24:18.467Z,9.70
2018-12-06T21:26:51.628Z,9.60
2018-12-06T21:29:24.310Z,9.70
2018-12-06T21:31:57.720Z,9.60
2018-12-06T21:34:31.143Z,9.60
2018-12-06T21:37:04.565Z,9.70
2018-12-06T21:39:37.645Z,9.70
2018-12-06T21:42:10.603Z,9.70
2018-12-06T21:44:43.516Z,9.80
2018-12-06T21:47:21.948Z,9.90
2018-12-06T21:49:55.308Z,9.90
2018-12-06T21:52:29.201Z,10.10
2018-12-06T21:55:02.819Z,9.90
2018-12-06T21:57:36.251Z,9.90
2018-12-06T22:00:10.445Z,9.80
2018-12-06T22:02:43.535Z,9.80
2018-12-06T22:05:16.224Z,9.80
2018-12-06T22:07:49.794Z,9.80
2018-12-06T22:10:22.802Z,9.80
2018-12-06T22:12:55.747Z,9.80
2018-12-06T22:15:28.867Z,9.70
2018-12-06T22:18:03.310Z,9.70
2018-12-06T22:20:36.379Z,9.70
2018-12-06T22:23:09.823Z,9.70
2018-12-06T22:25:42.443Z,9.70
2018-12-06T22:28:15.266Z,9.70
2018-12-06T22:30:48.904Z,9.70
2018-12-06T22:33:21.907Z,9.70
2018-12-06T22:35:55.050Z,9.60
2018-12-06T22:38:34.058Z,9.70
2018-12-06T22:41:04.231Z,9.80
2018-12-06T22:43:36.847Z,9.90
2018-12-06T22:46:09.781Z,9.90
2018-12-06T22:48:49.188Z,9.90
2018-12-06T22:51:24.430Z,9.90
2018-12-06T22:53:57.448Z,9.80
2018-12-06T22:56:30.784Z,9.70
2018-12-06T22:59:05.370Z,9.80
2018-12-06T23:01:40.726Z,9.80
2018-12-06T23:04:14.347Z,9.90
2018-12-06T23:06:49.009Z,9.90
2018-12-06T23:09:22.216Z,9.80
2018-12-06T23:11:55.833Z,9.70
2018-12-06T23:14:29.357Z,9.80
2018-12-06T23:17:02.334Z,9.90
2018-12-06T23:19:36.712Z,9.90
2018-12-06T23:22:11.139Z,10.00
2018-12-06T23:24:44.171Z,9.90
2018-12-06T23:27:16.761Z,9.90
2018-12-06T23:29:49.609Z,10.00
2018-12-06T23:32:24.188Z,9.90
2018-12-06T23:34:57.058Z,10.00
2018-12-06T23:37:29.648Z,10.00
2018-12-06T23:40:03.216Z,10.00
2018-12-06T23:42:36.617Z,10.00
2018-12-06T23:45:09.330Z,10.10
2018-12-06T23:47:43.940Z,10.00
2018-12-06T23:50:16.884Z,10.10
2018-12-06T23:52:50.860Z,10.20
2018-12-06T23:55:23.515Z,10.10
2018-12-06T23:57:56.244Z,10.20
